Time;durP1;ratioP1;P1;durP2;ratioP2;P2;SDS_P1;SDS_P2;PMS_P1;PMS_P2;Temp;Humidity;BMP_temperature;BMP_pressure;BME280_temperature;BME280_humidity;BME280_pressure;Samples;Min_cycle;Max_cycle;Signal;HPM_P1;HPM_P2
2023/10/11 00:00:26;;;;;;;;;;;15.80;99.90;;;;;;2618615;47;19958;-74
2023/10/11 00:02:59;;;;;;;;;;;15.80;99.90;;;;;;2618569;54;19967;-75
2023/10/11 00:05:36;;;;;;;;;;;15.80;99.90;;;;;;2618131;47;19950;-74
2023/10/11 00:08:07;;;;;;;;;;;15.70;99.90;;;;;;2619194;54;19946;-74
2023/10/11 00:10:42;;;;;;;;;;;15.70;99.90;;;;;;2618433;47;19958;-74
2023/10/11 00:13:15;;;;;;;;;;;15.70;99.90;;;;;;2618145;47;19950;-73
2023/10/11 00:15:48;;;;;;;;;;;15.60;99.90;;;;;;2618504;39;20348;-74
2023/10/11 00:18:22;;;;;;;;;;;15.60;99.90;;;;;;2617174;54;19953;-76
2023/10/11 00:20:57;;;;;;;;;;;15.60;99.90;;;;;;2617125;54;19947;-77
2023/10/11 00:23:28;;;;;;;;;;;15.60;99.90;;;;;;2617163;54;19947;-75
2023/10/11 00:26:00;;;;;;;;;;;15.50;99.90;;;;;;2617907;31;20361;-75
2023/10/11 00:28:31;;;;;;;;;;;15.50;99.90;;;;;;2617209;54;19939;-75
2023/10/11 00:31:03;;;;;;;;;;;15.50;99.90;;;;;;2617159;47;19946;-76
2023/10/11 00:33:36;;;;;;;;;;;15.50;99.90;;;;;;2616471;47;20432;-76
2023/10/11 00:36:08;;;;;;;;;;;15.50;99.90;;;;;;2617031;54;19964;-76
2023/10/11 00:38:47;;;;;;;;;;;15.40;99.90;;;;;;2617263;54;19952;-75
2023/10/11 00:41:20;;;;;;;;;;;15.40;99.90;;;;;;2617160;47;20033;-77
2023/10/11 00:43:52;;;;;;;;;;;15.40;99.90;;;;;;2618651;54;20117;-75
2023/10/11 00:46:24;;;;;;;;;;;15.30;99.90;;;;;;2617594;47;20053;-75
2023/10/11 00:49:05;;;;;;;;;;;15.30;99.90;;;;;;2617203;54;19995;-76
2023/10/11 00:51:36;;;;;;;;;;;15.20;99.90;;;;;;2616740;54;20030;-76
2023/10/11 00:54:07;;;;;;;;;;;15.20;99.90;;;;;;2616421;47;20050;-76
2023/10/11 00:56:37;;;;;;;;;;;15.20;99.90;;;;;;2616665;54;20495;-76
2023/10/11 00:59:10;;;;;;;;;;;15.20;99.90;;;;;;2616743;54;20017;-75
2023/10/11 01:01:42;;;;;;;;;;;15.20;99.90;;;;;;2620341;54;19933;-77
2023/10/11 01:04:16;;;;;;;;;;;15.20;99.90;;;;;;2625401;51;19998;-76
2023/10/11 01:06:48;;;;;;;;;;;15.10;99.90;;;;;;2618998;47;20022;-76
2023/10/11 01:09:25;;;;;;;;;;;15.10;99.90;;;;;;2617433;54;19947;-76
2023/10/11 01:11:55;;;;;;;;;;;15.10;99.90;;;;;;2617223;54;19939;-75
2023/10/11 01:14:25;;;;;;;;;;;15.10;99.90;;;;;;2617103;47;19946;-76
2023/10/11 01:16:55;;;;;;;;;;;15.00;99.90;;;;;;2617526;47;20421;-74
2023/10/11 01:19:30;;;;;;;;;;;15.00;99.90;;;;;;2617385;54;19938;-76
2023/10/11 01:22:03;;;;;;;;;;;15.00;99.90;;;;;;2617054;54;19957;-76
2023/10/11 01:24:33;;;;;;;;;;;15.00;99.90;;;;;;2617030;54;20042;-76
2023/10/11 01:27:03;;;;;;;;;;;14.90;99.90;;;;;;2617239;54;19969;-75
2023/10/11 01:29:33;;;;;;;;;;;15.00;99.90;;;;;;2617392;50;19977;-75
2023/10/11 01:32:03;;;;;;;;;;;14.90;99.90;;;;;;2616877;47;20487;-76
2023/10/11 01:34:33;;;;;;;;;;;14.90;99.90;;;;;;2617359;54;19973;-76
2023/10/11 01:37:06;;;;;;;;;;;15.00;99.90;;;;;;2617600;39;20326;-74
2023/10/11 01:39:36;;;;;;;;;;;15.20;99.90;;;;;;2617205;47;19958;-77
2023/10/11 01:42:06;;;;;;;;;;;14.80;99.90;;;;;;2617011;47;20030;-75
2023/10/11 01:44:38;;;;;;;;;;;15.20;99.90;;;;;;2618155;47;19945;-75
2023/10/11 01:47:08;;;;;;;;;;;14.80;99.90;;;;;;2622989;47;19939;-76
2023/10/11 01:49:39;;;;;;;;;;;14.70;99.90;;;;;;2617003;48;19939;-75
2023/10/11 01:52:12;;;;;;;;;;;14.70;99.90;;;;;;2616171;47;19947;-77
2023/10/11 01:54:42;;;;;;;;;;;14.70;99.90;;;;;;2616645;47;19946;-75
2023/10/11 01:57:12;;;;;;;;;;;14.70;99.90;;;;;;2616825;54;19947;-76
2023/10/11 01:59:42;;;;;;;;;;;14.60;99.90;;;;;;2616990;47;19946;-76
2023/10/11 02:02:12;;;;;;;;;;;14.60;99.90;;;;;;2617068;54;19971;-76
2023/10/11 02:04:42;;;;;;;;;;;14.60;99.90;;;;;;2620577;54;19980;-74
2023/10/11 02:07:15;;;;;;;;;;;14.60;99.90;;;;;;2621906;47;19958;-74
2023/10/11 02:09:45;;;;;;;;;;;14.60;99.90;;;;;;2621912;47;19999;-74
2023/10/11 02:12:17;;;;;;;;;;;14.50;99.90;;;;;;2622268;47;19947;-74
2023/10/11 02:14:49;;;;;;;;;;;14.50;99.90;;;;;;2621537;47;19958;-74
2023/10/11 02:17:23;;;;;;;;;;;14.50;99.90;;;;;;2618290;54;19962;-74
2023/10/11 02:19:53;;;;;;;;;;;14.50;99.90;;;;;;2618845;47;19946;-74
2023/10/11 02:22:26;;;;;;;;;;;14.50;99.90;;;;;;2617145;54;20000;-74
2023/10/11 02:24:59;;;;;;;;;;;14.50;99.90;;;;;;2617812;39;20347;-74
2023/10/11 02:27:32;;;;;;;;;;;14.50;99.90;;;;;;2618351;54;20002;-73
2023/10/11 05:50:54;;;;;;;;;;;14.50;99.90;;;;;;2607192;39;21272;-80
2023/10/11 05:53:28;;;;;;;;;;;13.60;99.90;;;;;;2604893;54;19954;-78
2023/10/11 05:55:57;;;;;;;;;;;13.60;99.90;;;;;;2606207;47;19946;-78
2023/10/11 05:58:28;;;;;;;;;;;13.60;99.90;;;;;;2605489;47;19947;-78
2023/10/11 06:00:59;;;;;;;;;;;13.60;99.90;;;;;;2606235;47;19946;-78
2023/10/11 06:03:29;;;;;;;;;;;13.50;99.90;;;;;;2606718;54;20462;-77
2023/10/11 06:06:10;;;;;;;;;;;13.50;99.90;;;;;;2605071;47;19958;-76
2023/10/11 06:08:44;;;;;;;;;;;13.50;99.90;;;;;;2606578;47;20050;-75
2023/10/11 06:11:15;;;;;;;;;;;13.50;99.90;;;;;;2604930;54;19955;-74
2023/10/11 06:13:45;;;;;;;;;;;13.50;99.90;;;;;;2604833;39;20350;-74
2023/10/11 06:16:16;;;;;;;;;;;13.50;99.90;;;;;;2606025;47;19947;-76
2023/10/11 06:18:55;;;;;;;;;;;13.50;99.90;;;;;;2605279;47;19970;-76
2023/10/11 06:21:34;;;;;;;;;;;13.50;99.90;;;;;;2604906;54;19954;-76
2023/10/11 06:24:06;;;;;;;;;;;13.50;99.90;;;;;;2604453;47;20607;-76
2023/10/11 06:29:22;;;;;;;;;;;13.60;99.90;;;;;;2605758;47;19946;-76
2023/10/11 06:31:53;;;;;;;;;;;13.60;99.90;;;;;;2604047;47;20752;-76
2023/10/11 06:34:35;;;;;;;;;;;13.60;99.90;;;;;;2603784;47;19946;-77
2023/10/11 06:37:08;;;;;;;;;;;13.60;99.90;;;;;;2605221;47;20024;-75
2023/10/11 06:42:24;;;;;;;;;;;13.60;99.90;;;;;;2605782;54;19953;-73
2023/10/11 06:44:57;;;;;;;;;;;13.70;99.90;;;;;;2605841;47;19976;-73
2023/10/11 06:47:33;;;;;;;;;;;13.70;99.90;;;;;;2605358;54;19954;-74
2023/10/11 06:50:10;;;;;;;;;;;13.70;99.90;;;;;;2605369;47;19974;-74
2023/10/11 06:52:45;;;;;;;;;;;13.80;99.90;;;;;;2606698;39;20361;-75
2023/10/11 06:55:22;;;;;;;;;;;13.80;99.90;;;;;;2605124;51;20360;-66
2023/10/11 06:57:54;;;;;;;;;;;13.90;99.90;;;;;;2605200;39;20367;-66
2023/10/11 07:00:28;;;;;;;;;;;13.90;99.90;;;;;;2603417;54;20392;-66
2023/10/11 07:03:06;;;;;;;;;;;14.00;99.90;;;;;;2603644;54;19959;-68
2023/10/11 07:05:46;;;;;;;;;;;14.00;99.90;;;;;;2604623;54;19947;-63
2023/10/11 07:08:20;;;;;;;;;;;14.10;99.90;;;;;;2604770;54;20003;-64
2023/10/11 07:11:00;;;;;;;;;;;14.10;99.90;;;;;;2604695;47;20756;-64
2023/10/11 07:13:49;;;;;;;;;;;14.10;99.90;;;;;;2604607;54;19953;-63
2023/10/11 07:16:20;;;;;;;;;;;14.20;99.90;;;;;;2604657;54;20032;-63
2023/10/11 07:18:54;;;;;;;;;;;14.30;99.90;;;;;;2604398;46;19947;-63
2023/10/11 07:21:26;;;;;;;;;;;14.30;99.90;;;;;;2604028;54;19947;-75
2023/10/11 07:24:12;;;;;;;;;;;14.40;99.90;;;;;;2603832;47;19947;-75
2023/10/11 07:26:56;;;;;;;;;;;14.50;99.90;;;;;;2603854;54;20060;-76
2023/10/11 07:29:23;;;;;;;;;;;14.60;99.90;;;;;;2605553;54;19975;-77
2023/10/11 07:31:53;;;;;;;;;;;14.80;99.90;;;;;;2604080;47;19946;-75
2023/10/11 07:34:25;;;;;;;;;;;14.70;99.90;;;;;;2604714;54;19946;-75
2023/10/11 07:36:56;;;;;;;;;;;14.80;99.90;;;;;;2604107;54;19958;-76
2023/10/11 07:39:33;;;;;;;;;;;14.90;99.90;;;;;;2605251;47;19947;-77
2023/10/11 07:42:06;;;;;;;;;;;14.90;99.90;;;;;;2604688;50;19946;-77
2023/10/11 07:44:38;;;;;;;;;;;15.00;99.90;;;;;;2605893;39;20399;-77
2023/10/11 07:47:15;;;;;;;;;;;15.00;99.90;;;;;;2605178;39;20366;-77
2023/10/11 07:49:45;;;;;;;;;;;15.10;99.90;;;;;;2605396;47;19973;-77
2023/10/11 07:52:19;;;;;;;;;;;15.20;99.90;;;;;;2606866;39;20389;-76
2023/10/11 07:54:52;;;;;;;;;;;15.20;99.90;;;;;;2607751;54;20474;-77
2023/10/11 07:57:24;;;;;;;;;;;15.20;99.90;;;;;;2613402;54;19946;-76
2023/10/11 07:59:54;;;;;;;;;;;15.30;99.90;;;;;;2619929;47;19938;-76
2023/10/11 08:02:31;;;;;;;;;;;15.40;99.90;;;;;;2619039;39;20345;-77
2023/10/11 08:05:01;;;;;;;;;;;15.40;99.90;;;;;;2618625;47;19945;-75
2023/10/11 08:07:30;;;;;;;;;;;15.50;99.90;;;;;;2618579;47;20008;-76
2023/10/11 08:10:29;;;;;;;;;;;15.50;99.90;;;;;;2618652;54;20050;-75
2023/10/11 08:12:53;;;;;;;;;;;15.60;99.90;;;;;;2618218;47;19939;-75
2023/10/11 08:15:24;;;;;;;;;;;15.70;99.90;;;;;;2618766;46;19957;-76
2023/10/11 08:17:53;;;;;;;;;;;15.70;99.90;;;;;;2617985;47;19991;-76
2023/10/11 08:20:28;;;;;;;;;;;15.80;99.90;;;;;;2618319;54;19946;-76
2023/10/11 08:22:58;;;;;;;;;;;15.80;99.90;;;;;;2616330;47;19953;-75
2023/10/11 08:25:30;;;;;;;;;;;15.90;99.90;;;;;;2617497;46;20057;-74
2023/10/11 08:28:12;;;;;;;;;;;16.00;99.90;;;;;;2616499;47;19946;-75
2023/10/11 08:30:45;;;;;;;;;;;16.10;99.90;;;;;;2616616;54;19939;-78
2023/10/11 08:33:16;;;;;;;;;;;16.10;99.90;;;;;;2617638;47;19959;-77
2023/10/11 08:35:49;;;;;;;;;;;16.30;99.90;;;;;;2621403;47;19952;-78
2023/10/11 08:38:19;;;;;;;;;;;16.50;99.90;;;;;;2620267;47;19991;-75
2023/10/11 08:40:58;;;;;;;;;;;16.50;99.90;;;;;;2620425;46;19938;-77
2023/10/11 08:43:28;;;;;;;;;;;16.60;99.90;;;;;;2618802;47;20061;-77
2023/10/11 08:46:05;;;;;;;;;;;16.60;99.90;;;;;;2617888;47;19975;-78
2023/10/11 08:48:38;;;;;;;;;;;16.70;99.90;;;;;;2617608;47;20556;-76
2023/10/11 08:51:10;;;;;;;;;;;16.80;99.90;;;;;;2617116;47;19947;-76
2023/10/11 08:53:41;;;;;;;;;;;17.00;99.90;;;;;;2616128;47;19946;-62
2023/10/11 08:56:14;;;;;;;;;;;17.00;99.90;;;;;;2616652;39;20381;-62
2023/10/11 08:58:47;;;;;;;;;;;17.10;99.90;;;;;;2615572;54;19946;-62
2023/10/11 09:01:17;;;;;;;;;;;17.30;99.90;;;;;;2616402;54;19939;-62
2023/10/11 09:04:03;;;;;;;;;;;17.40;99.90;;;;;;2616931;54;19946;-62
2023/10/11 09:06:35;;;;;;;;;;;17.60;99.90;;;;;;2616972;47;19950;-61
2023/10/11 09:09:05;;;;;;;;;;;17.70;99.90;;;;;;2616290;54;20387;-62
2023/10/11 09:11:39;;;;;;;;;;;17.80;99.90;;;;;;2617220;54;19945;-62
2023/10/11 09:14:12;;;;;;;;;;;17.90;99.90;;;;;;2616717;47;19990;-63
2023/10/11 09:16:43;;;;;;;;;;;18.00;99.90;;;;;;2616404;46;19946;-61
2023/10/11 09:19:19;;;;;;;;;;;18.10;99.90;;;;;;2616999;54;19946;-62
2023/10/11 09:22:17;;;;;;;;;;;18.20;99.90;;;;;;2617061;39;20374;-62
2023/10/11 09:24:47;;;;;;;;;;;18.20;99.90;;;;;;2617262;54;19946;-61
2023/10/11 09:27:22;;;;;;;;;;;18.30;99.90;;;;;;2616570;54;19954;-62
2023/10/11 09:29:57;;;;;;;;;;;18.40;99.90;;;;;;2616565;54;20052;-62
2023/10/11 09:32:34;;;;;;;;;;;18.50;99.90;;;;;;2616049;47;19939;-63
2023/10/11 09:35:13;;;;;;;;;;;18.60;99.90;;;;;;2616854;54;20387;-62
2023/10/11 09:37:46;;;;;;;;;;;18.70;99.90;;;;;;2616024;47;19953;-63
2023/10/11 09:40:18;;;;;;;;;;;18.80;99.90;;;;;;2617144;47;19957;-65
2023/10/11 09:42:50;;;;;;;;;;;18.90;99.90;;;;;;2616887;46;19939;-63
2023/10/11 09:45:22;;;;;;;;;;;19.10;99.90;;;;;;2616719;39;20390;-62
2023/10/11 09:47:54;;;;;;;;;;;19.10;99.90;;;;;;2616407;54;20450;-62
2023/10/11 09:50:27;;;;;;;;;;;19.20;99.90;;;;;;2617133;39;20202;-62
2023/10/11 09:53:00;;;;;;;;;;;19.30;99.90;;;;;;2615664;54;20728;-75
2023/10/11 09:55:51;;;;;;;;;;;19.40;99.90;;;;;;2617407;39;20675;-79
2023/10/11 09:58:31;;;;;;;;;;;19.50;99.90;;;;;;2617533;54;20012;-80
2023/10/11 10:01:07;;;;;;;;;;;19.60;99.90;;;;;;2619340;54;19946;-80
2023/10/11 10:03:38;;;;;;;;;;;19.70;99.90;;;;;;2619206;47;19958;-77
2023/10/11 10:06:18;;;;;;;;;;;19.80;99.90;;;;;;2619055;47;19954;-79
2023/10/11 10:08:58;;;;;;;;;;;19.90;99.90;;;;;;2616790;54;19946;-78
2023/10/11 10:14:50;;;;;;;;;;;20.10;99.90;;;;;;2620478;54;19939;-77
2023/10/11 10:17:20;;;;;;;;;;;20.30;99.90;;;;;;2616311;47;20432;-77
2023/10/11 10:19:50;;;;;;;;;;;20.40;99.90;;;;;;2617245;47;19946;-77
2023/10/11 10:22:22;;;;;;;;;;;20.50;99.90;;;;;;2618027;47;19947;-76
2023/10/11 10:24:54;;;;;;;;;;;20.60;99.90;;;;;;2617133;47;19946;-77
2023/10/11 10:27:40;;;;;;;;;;;20.70;99.90;;;;;;2617982;54;19951;-76
2023/10/11 10:30:16;;;;;;;;;;;20.90;99.90;;;;;;2617573;47;19946;-75
2023/10/11 10:33:01;;;;;;;;;;;21.00;99.90;;;;;;2618586;47;19953;-77
2023/10/11 10:35:40;;;;;;;;;;;21.10;99.90;;;;;;2618690;47;19946;-77
2023/10/11 10:38:12;;;;;;;;;;;21.10;99.90;;;;;;2616509;47;19991;-76
2023/10/11 10:40:45;;;;;;;;;;;21.30;99.90;;;;;;2616630;47;19996;-75
2023/10/11 10:43:23;;;;;;;;;;;21.40;99.90;;;;;;2616606;54;19959;-75
2023/10/11 10:45:59;;;;;;;;;;;21.40;99.90;;;;;;2617767;47;19962;-78
2023/10/11 10:48:30;;;;;;;;;;;21.50;99.90;;;;;;2617139;54;19946;-75
2023/10/11 10:51:04;;;;;;;;;;;21.60;99.90;;;;;;2617472;54;19938;-76
2023/10/11 10:53:37;;;;;;;;;;;21.70;99.90;;;;;;2618586;39;20313;-75
2023/10/11 10:56:08;;;;;;;;;;;21.90;99.90;;;;;;2618055;54;19971;-75
2023/10/11 10:58:35;;;;;;;;;;;22.00;99.90;;;;;;2620103;47;19955;-76
2023/10/11 11:01:21;;;;;;;;;;;22.20;99.90;;;;;;2623172;54;19923;-77
2023/10/11 11:03:56;;;;;;;;;;;22.10;99.90;;;;;;2620506;54;19946;-74
2023/10/11 11:06:28;;;;;;;;;;;22.50;99.90;;;;;;2619021;47;19947;-76
2023/10/11 11:08:56;;;;;;;;;;;22.60;99.90;;;;;;2618825;47;20424;-75
2023/10/11 11:11:31;;;;;;;;;;;22.70;99.90;;;;;;2618726;54;19938;-75
2023/10/11 11:13:58;;;;;;;;;;;22.80;99.90;;;;;;2621418;47;19957;-74
2023/10/11 11:16:30;;;;;;;;;;;22.90;99.90;;;;;;2615997;39;20014;-76
2023/10/11 11:19:10;;;;;;;;;;;23.00;99.90;;;;;;2617139;54;19967;-75
2023/10/11 11:21:44;;;;;;;;;;;23.10;99.90;;;;;;2619393;47;19947;-76
2023/10/11 11:24:15;;;;;;;;;;;23.20;99.90;;;;;;2618679;47;20444;-76
2023/10/11 11:26:45;;;;;;;;;;;23.30;99.90;;;;;;2620620;54;19938;-73
2023/10/11 11:29:31;;;;;;;;;;;23.60;99.90;;;;;;2622659;47;19987;-74
2023/10/11 11:32:14;;;;;;;;;;;23.60;99.90;;;;;;2618537;47;19939;-77
2023/10/11 11:35:00;;;;;;;;;;;23.80;99.90;;;;;;2618037;47;19954;-74
2023/10/11 11:37:30;;;;;;;;;;;24.00;99.90;;;;;;2616687;54;19953;-75
2023/10/11 11:40:19;;;;;;;;;;;24.20;99.90;;;;;;2617375;47;19950;-75
2023/10/11 11:42:50;;;;;;;;;;;24.30;99.90;;;;;;2617812;54;19958;-75
2023/10/11 11:45:20;;;;;;;;;;;24.40;99.90;;;;;;2618285;47;19954;-79
2023/10/11 11:47:56;;;;;;;;;;;24.50;99.90;;;;;;2617025;54;19951;-75
2023/10/11 11:50:30;;;;;;;;;;;24.60;99.90;;;;;;2617594;47;19954;-76
2023/10/11 11:52:57;;;;;;;;;;;24.70;99.90;;;;;;2616844;52;19947;-76
2023/10/11 11:55:27;;;;;;;;;;;24.80;99.90;;;;;;2617400;54;19938;-75
2023/10/11 11:57:55;;;;;;;;;;;24.90;99.90;;;;;;2617037;54;19951;-74
2023/10/11 12:00:38;;;;;;;;;;;25.00;99.90;;;;;;2617238;54;19973;-74
2023/10/11 12:03:09;;;;;;;;;;;25.10;99.90;;;;;;2617346;47;19998;-75
2023/10/11 12:05:40;;;;;;;;;;;25.30;99.90;;;;;;2618465;39;20342;-77
2023/10/11 12:08:18;;;;;;;;;;;25.40;99.90;;;;;;2617193;47;20013;-77
2023/10/11 12:10:50;;;;;;;;;;;25.50;99.90;;;;;;2617966;54;20037;-77
2023/10/11 12:13:25;;;;;;;;;;;25.60;99.90;;;;;;2618338;47;19939;-77
2023/10/11 12:15:59;;;;;;;;;;;25.70;99.90;;;;;;2621023;47;19987;-85
2023/10/11 12:18:35;;;;;;;;;;;25.80;99.90;;;;;;2626200;54;19970;-76
2023/10/11 12:21:10;;;;;;;;;;;26.00;99.90;;;;;;2619848;47;19964;-78
2023/10/11 12:23:46;;;;;;;;;;;26.20;99.90;;;;;;2621719;54;19939;-78
2023/10/11 12:26:20;;;;;;;;;;;26.30;99.90;;;;;;2622475;47;19951;-77
2023/10/11 12:28:50;;;;;;;;;;;26.40;99.90;;;;;;2620137;47;19950;-78
2023/10/11 12:31:21;;;;;;;;;;;26.50;99.90;;;;;;2619628;47;20063;-78
2023/10/11 12:33:53;;;;;;;;;;;26.70;99.90;;;;;;2620226;47;19946;-78
2023/10/11 12:36:28;;;;;;;;;;;26.80;99.90;;;;;;2617572;47;19953;-79
2023/10/11 12:39:01;;;;;;;;;;;27.00;99.90;;;;;;2610937;47;19946;-76
2023/10/11 12:41:31;;;;;;;;;;;27.10;99.90;;;;;;2610651;47;19954;-77
2023/10/11 12:44:02;;;;;;;;;;;27.20;99.90;;;;;;2611345;47;20065;-78
2023/10/11 12:46:32;;;;;;;;;;;27.30;99.90;;;;;;2613411;47;19947;-78
2023/10/11 12:49:12;;;;;;;;;;;27.30;99.90;;;;;;2612374;39;20356;-77
2023/10/11 12:51:44;;;;;;;;;;;27.40;99.90;;;;;;2613067;47;19946;-78
2023/10/11 12:54:14;;;;;;;;;;;27.40;99.90;;;;;;2611095;47;19969;-77
2023/10/11 12:56:45;;;;;;;;;;;27.40;99.90;;;;;;2612638;46;19953;-77
2023/10/11 12:59:16;;;;;;;;;;;27.50;99.90;;;;;;2616196;39;20379;-77
2023/10/11 13:01:50;;;;;;;;;;;27.40;99.90;;;;;;2615290;47;20090;-77
2023/10/11 13:04:30;;;;;;;;;;;27.40;99.90;;;;;;2622089;47;19953;-76
2023/10/11 13:07:01;;;;;;;;;;;27.20;99.90;;;;;;2622601;47;19939;-76
2023/10/11 13:09:35;;;;;;;;;;;27.10;99.90;;;;;;2615679;47;20034;-77
2023/10/11 13:12:06;;;;;;;;;;;27.00;99.90;;;;;;2613979;54;20393;-77
2023/10/11 13:14:38;;;;;;;;;;;26.80;99.90;;;;;;2615490;39;20340;-76
2023/10/11 13:17:15;;;;;;;;;;;26.70;99.90;;;;;;2614229;54;19947;-77
2023/10/11 13:19:51;;;;;;;;;;;26.50;99.90;;;;;;2614365;39;20414;-76
2023/10/11 13:22:21;;;;;;;;;;;26.40;99.90;;;;;;2615641;47;19954;-80
2023/10/11 13:24:51;;;;;;;;;;;26.30;99.90;;;;;;2617659;47;20053;-75
2023/10/11 13:27:22;;;;;;;;;;;26.20;99.90;;;;;;2613989;54;20512;-76
2023/10/11 13:29:52;;;;;;;;;;;26.10;99.90;;;;;;2616208;49;19947;-77
2023/10/11 13:32:22;;;;;;;;;;;26.00;99.90;;;;;;2614808;54;20614;-76
2023/10/11 13:34:55;;;;;;;;;;;25.90;99.90;;;;;;2614180;47;19946;-75
2023/10/11 13:37:27;;;;;;;;;;;25.90;99.90;;;;;;2614927;54;19953;-75
2023/10/11 13:40:05;;;;;;;;;;;25.80;99.90;;;;;;2615183;47;19946;-75
2023/10/11 13:42:37;;;;;;;;;;;25.70;99.90;;;;;;2614283;54;19964;-83
2023/10/11 13:45:09;;;;;;;;;;;25.70;99.90;;;;;;2616861;54;19957;-76
2023/10/11 13:47:39;;;;;;;;;;;25.60;99.90;;;;;;2617170;46;19950;-75
2023/10/11 13:50:20;;;;;;;;;;;25.60;99.90;;;;;;2612092;39;20830;-77
2023/10/11 13:52:51;;;;;;;;;;;25.60;99.90;;;;;;2615768;54;19958;-75
2023/10/11 13:55:23;;;;;;;;;;;25.60;99.90;;;;;;2616761;47;19948;-76
2023/10/11 13:57:55;;;;;;;;;;;25.60;99.90;;;;;;2616994;54;19953;-74
2023/10/11 14:06:20;;;;;;;;;;;25.60;99.90;;;;;;2615788;54;19958;-73
2023/10/11 14:08:51;;;;;;;;;;;25.60;99.90;;;;;;2615701;49;19946;-73
2023/10/11 14:11:23;;;;;;;;;;;25.60;99.90;;;;;;2614946;54;20545;-75
2023/10/11 14:13:53;;;;;;;;;;;25.70;99.90;;;;;;2614236;47;20030;-77
2023/10/11 14:16:27;;;;;;;;;;;25.70;99.90;;;;;;2616890;31;20443;-77
2023/10/11 14:19:06;;;;;;;;;;;25.70;99.90;;;;;;2618344;47;20474;-78
2023/10/11 14:21:40;;;;;;;;;;;25.70;99.90;;;;;;2619904;47;19951;-76
2023/10/11 14:24:13;;;;;;;;;;;25.80;99.90;;;;;;2617305;54;19950;-78
2023/10/11 14:26:44;;;;;;;;;;;25.80;99.90;;;;;;2615960;39;20348;-77
2023/10/11 14:29:15;;;;;;;;;;;25.80;99.90;;;;;;2614433;47;19939;-77
2023/10/11 14:31:46;;;;;;;;;;;25.90;99.90;;;;;;2616139;47;20019;-77
2023/10/11 14:34:20;;;;;;;;;;;25.90;99.90;;;;;;2615869;47;20057;-75
2023/10/11 14:36:53;;;;;;;;;;;26.00;99.90;;;;;;2618054;46;19970;-79
2023/10/11 14:39:24;;;;;;;;;;;26.10;99.90;;;;;;2616089;54;19953;-77
2023/10/11 14:44:56;;;;;;;;;;;26.40;99.90;;;;;;2610627;39;20480;-74
2023/10/11 14:47:26;;;;;;;;;;;27.40;99.90;;;;;;2612562;47;19953;-74
2023/10/11 14:49:57;;;;;;;;;;;28.80;99.90;;;;;;2614769;54;19946;-73
2023/10/11 14:52:30;;;;;;;;;;;30.50;99.90;;;;;;2611561;54;20336;-71
2023/10/11 14:55:00;;;;;;;;;;;31.60;99.90;;;;;;2603822;39;20290;-74
2023/10/11 14:57:30;;;;;;;;;;;31.90;99.90;;;;;;2605704;54;20079;-70
2023/10/11 15:00:00;;;;;;;;;;;32.10;99.90;;;;;;2605430;54;20045;-73
2023/10/11 15:02:32;;;;;;;;;;;32.20;99.90;;;;;;2604195;54;19950;-71
2023/10/11 15:05:05;;;;;;;;;;;32.50;99.90;;;;;;2607569;47;19946;-74
2023/10/11 15:07:40;;;;;;;;;;;32.80;99.90;;;;;;2605023;47;19954;-71
2023/10/11 15:10:11;;;;;;;;;;;33.00;99.90;;;;;;2604358;54;19946;-71
2023/10/11 15:12:42;;;;;;;;;;;33.30;99.90;;;;;;2605228;54;19950;-71
2023/10/11 15:15:14;;;;;;;;;;;33.50;99.90;;;;;;2604875;47;19979;-72
2023/10/11 15:17:44;;;;;;;;;;;33.20;99.90;;;;;;2604548;54;19946;-72
2023/10/11 15:20:14;;;;;;;;;;;32.60;99.90;;;;;;2601864;54;19974;-72
2023/10/11 15:22:51;;;;;;;;;;;31.90;99.90;;;;;;2605034;54;19971;-71
2023/10/11 15:25:21;;;;;;;;;;;31.20;99.90;;;;;;2605023;54;19947;-73
2023/10/11 15:27:51;;;;;;;;;;;30.40;99.90;;;;;;2605737;47;19950;-73
2023/10/11 15:30:21;;;;;;;;;;;29.80;99.90;;;;;;2604519;39;20377;-70
2023/10/11 15:32:53;;;;;;;;;;;29.20;99.90;;;;;;2605152;54;19958;-71
2023/10/11 15:35:26;;;;;;;;;;;28.70;99.90;;;;;;2605950;47;19947;-74
2023/10/11 15:38:00;;;;;;;;;;;28.20;99.90;;;;;;2605200;54;20020;-72
2023/10/11 15:40:31;;;;;;;;;;;27.70;99.90;;;;;;2602972;54;20438;-74
2023/10/11 15:43:01;;;;;;;;;;;27.30;99.90;;;;;;2605791;54;19967;-71
2023/10/11 15:45:31;;;;;;;;;;;26.90;99.90;;;;;;2604781;54;19945;-73
2023/10/11 15:48:01;;;;;;;;;;;26.60;99.90;;;;;;2604647;54;19953;-71
2023/10/11 15:50:31;;;;;;;;;;;26.30;99.90;;;;;;2604538;54;19938;-71
2023/10/11 15:53:03;;;;;;;;;;;26.10;99.90;;;;;;2603360;54;19954;-73
2023/10/11 15:55:40;;;;;;;;;;;25.80;99.90;;;;;;2603536;47;19950;-71
2023/10/11 15:58:10;;;;;;;;;;;25.50;99.90;;;;;;2604974;54;19953;-71
2023/10/11 16:00:42;;;;;;;;;;;25.40;99.90;;;;;;2603936;54;19954;-74
2023/10/11 16:03:12;;;;;;;;;;;25.20;99.90;;;;;;2604055;47;19947;-74
2023/10/11 16:05:42;;;;;;;;;;;25.00;99.90;;;;;;2605144;47;19947;-74
2023/10/11 16:08:14;;;;;;;;;;;24.80;99.90;;;;;;2604908;54;20414;-73
2023/10/11 16:10:44;;;;;;;;;;;24.70;99.90;;;;;;2606005;54;20469;-72
2023/10/11 16:13:14;;;;;;;;;;;24.60;99.90;;;;;;2605120;46;20053;-75
2023/10/11 16:15:43;;;;;;;;;;;24.50;99.90;;;;;;2605351;47;20501;-75
2023/10/11 16:18:13;;;;;;;;;;;24.30;99.90;;;;;;2605599;54;19954;-75
2023/10/11 16:20:44;;;;;;;;;;;24.20;99.90;;;;;;2605622;54;19947;-74
2023/10/11 16:23:18;;;;;;;;;;;24.10;99.90;;;;;;2607242;47;19950;-73
2023/10/11 16:25:48;;;;;;;;;;;24.00;99.90;;;;;;2605816;54;19953;-72
2023/10/11 16:28:18;;;;;;;;;;;23.80;99.90;;;;;;2603998;47;20018;-74
2023/10/11 16:30:53;;;;;;;;;;;23.70;99.90;;;;;;2605931;47;19946;-72
2023/10/11 16:33:23;;;;;;;;;;;23.60;99.90;;;;;;2603920;54;19954;-67
2023/10/11 16:35:54;;;;;;;;;;;23.50;99.90;;;;;;2608490;54;20056;-65
2023/10/11 16:38:26;;;;;;;;;;;23.40;99.90;;;;;;2603400;47;19951;-66
2023/10/11 16:40:56;;;;;;;;;;;23.30;99.90;;;;;;2604420;54;19946;-71
2023/10/11 16:43:26;;;;;;;;;;;23.20;99.90;;;;;;2603204;54;19953;-67
2023/10/11 16:45:57;;;;;;;;;;;23.10;99.90;;;;;;2604924;54;19955;-66
2023/10/11 16:48:28;;;;;;;;;;;23.00;99.90;;;;;;2603112;47;20469;-66
2023/10/11 16:50:58;;;;;;;;;;;22.90;99.90;;;;;;2604158;39;20123;-65
2023/10/11 16:53:32;;;;;;;;;;;22.70;99.90;;;;;;2605073;39;20349;-66
2023/10/11 16:56:02;;;;;;;;;;;22.70;99.90;;;;;;2602969;54;19947;-67
2023/10/11 16:58:32;;;;;;;;;;;22.50;99.90;;;;;;2604640;54;19946;-67
2023/10/11 17:01:01;;;;;;;;;;;22.40;99.90;;;;;;2604039;54;19947;-64
2023/10/11 17:03:35;;;;;;;;;;;22.30;99.90;;;;;;2604421;54;19955;-67
2023/10/11 17:06:18;;;;;;;;;;;22.20;99.90;;;;;;2604749;46;19950;-76
2023/10/11 17:08:51;;;;;;;;;;;22.20;99.90;;;;;;2606663;46;19950;-79
2023/10/11 17:11:20;;;;;;;;;;;22.00;99.90;;;;;;2606056;39;20458;-76
2023/10/11 17:13:50;;;;;;;;;;;22.00;99.90;;;;;;2605993;54;19947;-76
2023/10/11 17:16:20;;;;;;;;;;;21.80;99.90;;;;;;2606555;46;19946;-76
2023/10/11 17:18:50;;;;;;;;;;;21.80;99.90;;;;;;2608347;47;19953;-74
2023/10/11 17:21:20;;;;;;;;;;;21.70;99.90;;;;;;2604444;39;20069;-77
2023/10/11 17:23:52;;;;;;;;;;;21.60;99.90;;;;;;2604109;54;19972;-75
2023/10/11 17:26:21;;;;;;;;;;;21.50;99.90;;;;;;2605673;54;19946;-75
2023/10/11 17:28:55;;;;;;;;;;;21.40;99.90;;;;;;2606237;47;20445;-75
2023/10/11 17:31:26;;;;;;;;;;;21.40;99.90;;;;;;2607349;47;19951;-76
2023/10/11 17:33:56;;;;;;;;;;;21.30;99.90;;;;;;2607599;39;20379;-77
2023/10/11 17:36:26;;;;;;;;;;;21.30;99.90;;;;;;2608251;47;19964;-77
2023/10/11 17:38:59;;;;;;;;;;;21.20;99.90;;;;;;2608966;54;20491;-76
2023/10/11 17:41:28;;;;;;;;;;;21.10;99.90;;;;;;2608046;54;19975;-77
2023/10/11 17:43:58;;;;;;;;;;;21.00;99.90;;;;;;2609494;54;19977;-76
2023/10/11 17:46:30;;;;;;;;;;;21.00;99.90;;;;;;2605554;47;20591;-76
2023/10/11 17:49:00;;;;;;;;;;;20.90;99.90;;;;;;2605646;47;20414;-77
2023/10/11 17:51:30;;;;;;;;;;;20.80;99.90;;;;;;2605525;39;20135;-76
2023/10/11 17:54:03;;;;;;;;;;;20.70;99.90;;;;;;2606164;47;19954;-76
2023/10/11 17:56:32;;;;;;;;;;;20.80;99.90;;;;;;2606255;47;19947;-77
2023/10/11 17:59:03;;;;;;;;;;;20.70;99.90;;;;;;2607431;47;19950;-77
2023/10/11 18:01:32;;;;;;;;;;;20.60;99.90;;;;;;2607300;47;19953;-76
2023/10/11 18:04:05;;;;;;;;;;;20.60;99.90;;;;;;2607014;47;19957;-76
2023/10/11 18:06:35;;;;;;;;;;;20.70;99.90;;;;;;2606186;47;19974;-77
2023/10/11 18:09:08;;;;;;;;;;;20.40;99.90;;;;;;2605763;39;20389;-76
2023/10/11 18:11:37;;;;;;;;;;;20.40;99.90;;;;;;2605010;54;19946;-76
2023/10/11 18:14:07;;;;;;;;;;;20.30;99.90;;;;;;2607812;47;20437;-80
2023/10/11 18:16:38;;;;;;;;;;;20.30;99.90;;;;;;2608470;54;20663;-78
2023/10/11 18:19:10;;;;;;;;;;;20.20;99.90;;;;;;2611490;54;19950;-80
2023/10/11 18:21:43;;;;;;;;;;;20.10;99.90;;;;;;2614182;47;20316;-78
2023/10/11 18:24:16;;;;;;;;;;;20.10;99.90;;;;;;2614568;47;20527;-80
2023/10/11 18:26:47;;;;;;;;;;;20.10;99.90;;;;;;2613441;39;20421;-80